Time;durP1;ratioP1;P1;durP2;ratioP2;P2;SDS_P1;SDS_P2;PMS_P1;PMS_P2;Temp;Humidity;BMP_temperature;BMP_pressure;BME280_temperature;BME280_humidity;BME280_pressure;Samples;Min_cycle;Max_cycle;Signal;HPM_P1;HPM_P2
2021/12/20 13:46:13;;;;;;;13.10;4.57;;;5.80;99.90;;;;;;5086972;28;20367;-72
2021/12/20 13:48:50;;;;;;;11.83;4.43;;;5.70;99.90;;;;;;5062554;28;20282;-69
2021/12/20 13:51:16;;;;;;;14.57;4.07;;;5.60;99.90;;;;;;5062883;28;20580;-71
2021/12/20 13:53:42;;;;;;;13.53;4.50;;;5.70;99.90;;;;;;5062278;28;20279;-71
2021/12/20 13:56:08;;;;;;;17.53;5.83;;;5.70;99.90;;;;;;5064885;28;20063;-71
2021/12/20 13:58:34;;;;;;;15.47;4.90;;;5.80;99.90;;;;;;5062543;28;20102;-72
2021/12/20 14:01:00;;;;;;;18.60;4.93;;;5.80;99.90;;;;;;5064440;28;20673;-75
2021/12/20 14:03:25;;;;;;;13.90;5.10;;;5.90;99.90;;;;;;5063361;28;20036;-73
2021/12/20 14:05:51;;;;;;;16.47;4.77;;;5.90;99.90;;;;;;5064055;28;20045;-73
2021/12/20 14:08:22;;;;;;;15.67;4.53;;;5.90;99.90;;;;;;5063886;28;20068;-73
2021/12/20 14:10:49;;;;;;;16.73;4.53;;;5.90;99.90;;;;;;5064222;28;20437;-71
2021/12/20 14:13:23;;;;;;;11.87;3.93;;;5.90;99.90;;;;;;5065686;28;20055;-72
2021/12/20 14:16:02;;;;;;;17.27;4.40;;;5.90;99.90;;;;;;5063616;28;20052;-72
2021/12/20 14:18:36;;;;;;;15.23;4.63;;;5.90;99.90;;;;;;5065487;28;20059;-72
2021/12/20 14:21:04;;;;;;;13.60;4.40;;;5.90;99.90;;;;;;5065141;28;20493;-73
2021/12/20 14:23:40;;;;;;;14.20;4.30;;;5.90;99.90;;;;;;5064177;28;20090;-70
2021/12/20 14:26:16;;;;;;;10.57;3.70;;;5.80;99.90;;;;;;5065302;28;20048;-71
2021/12/20 14:28:51;;;;;;;20.77;4.03;;;5.70;99.90;;;;;;5064964;28;20103;-79
2021/12/20 14:31:30;;;;;;;14.30;3.73;;;5.80;99.90;;;;;;5063257;28;20715;-72
2021/12/20 14:33:57;;;;;;;16.37;4.60;;;5.80;99.90;;;;;;5064841;28;20041;-71
2021/12/20 14:36:24;;;;;;;14.87;4.17;;;5.80;99.90;;;;;;5063599;28;20064;-70
2021/12/20 14:38:52;;;;;;;12.77;3.77;;;5.80;99.90;;;;;;5063771;28;20052;-70
2021/12/20 14:41:33;;;;;;;14.93;4.07;;;5.80;99.90;;;;;;5063671;28;20053;-70
2021/12/20 14:44:05;;;;;;;11.82;3.67;;;5.80;99.90;;;;;;5064033;28;20166;-72
2021/12/20 14:46:51;;;;;;;15.00;4.10;;;5.80;99.90;;;;;;5063394;28;20056;-71
2021/12/20 14:49:22;;;;;;;19.00;4.77;;;5.80;99.90;;;;;;5064998;28;20044;-71
2021/12/20 14:51:49;;;;;;;14.38;3.65;;;5.70;99.90;;;;;;5064076;28;20091;-72
2021/12/20 14:54:23;;;;;;;15.57;4.40;;;5.80;99.90;;;;;;5064827;28;20057;-74
2021/12/20 14:56:53;;;;;;;13.07;4.47;;;5.80;99.90;;;;;;5054695;28;20053;-74
2021/12/20 14:59:20;;;;;;;16.90;4.40;;;5.80;99.90;;;;;;5050248;28;20052;-70
2021/12/20 15:01:50;;;;;;;11.57;4.07;;;5.80;99.90;;;;;;5051388;28;20049;-71
2021/12/20 15:04:19;;;;;;;14.37;4.80;;;5.70;99.90;;;;;;5051590;28;20053;-71
2021/12/20 15:06:54;;;;;;;19.40;5.93;;;5.70;99.90;;;;;;5050543;28;20044;-71
2021/12/20 15:09:20;;;;;;;10.87;4.33;;;5.70;99.90;;;;;;5051327;28;20045;-70
2021/12/20 15:11:46;;;;;;;16.30;5.03;;;5.70;99.90;;;;;;5048962;28;20037;-73
2021/12/20 15:14:12;;;;;;;13.23;4.83;;;5.70;99.90;;;;;;5051173;28;20056;-71
2021/12/20 15:16:38;;;;;;;16.10;5.43;;;5.70;99.90;;;;;;5049998;28;20139;-73
2021/12/20 15:19:04;;;;;;;13.73;4.37;;;5.70;99.90;;;;;;5050759;28;20057;-71
2021/12/20 15:21:31;;;;;;;13.53;4.77;;;5.70;99.90;;;;;;5050866;28;20115;-70
2021/12/20 15:23:57;;;;;;;11.70;4.63;;;5.70;99.90;;;;;;5049411;28;20118;-73
2021/12/20 15:26:24;;;;;;;12.43;4.93;;;5.70;99.90;;;;;;5050268;28;20186;-72
2021/12/20 15:28:50;;;;;;;12.10;5.40;;;5.70;99.90;;;;;;5049707;28;20048;-72
2021/12/20 15:31:15;;;;;;;14.83;4.93;;;5.70;99.90;;;;;;5049908;28;20374;-73
2021/12/20 15:33:42;;;;;;;13.00;4.20;;;5.60;99.90;;;;;;5050103;28;20044;-74
2021/12/20 15:36:08;;;;;;;9.43;4.27;;;5.60;99.90;;;;;;5049458;28;20190;-70
2021/12/20 15:38:33;;;;;;;14.20;4.93;;;5.60;99.90;;;;;;5049749;28;20481;-73
2021/12/20 15:40:59;;;;;;;15.37;5.40;;;5.60;99.90;;;;;;5049599;28;20045;-74
2021/12/20 15:43:24;;;;;;;11.23;5.13;;;5.60;99.90;;;;;;5050044;28;20405;-75
2021/12/20 15:45:50;;;;;;;16.60;7.13;;;5.50;99.90;;;;;;5050155;28;20075;-73
2021/12/20 15:48:15;;;;;;;13.43;6.00;;;5.50;99.90;;;;;;5048238;28;20099;-74
2021/12/20 15:50:46;;;;;;;14.13;6.17;;;5.50;99.90;;;;;;5048649;28;20106;-74
2021/12/20 15:53:15;;;;;;;18.37;8.30;;;5.50;99.90;;;;;;5050018;28;20048;-76
2021/12/20 15:55:42;;;;;;;21.20;14.27;;;5.40;99.90;;;;;;5048810;28;20140;-74
2021/12/20 15:58:08;;;;;;;22.93;16.07;;;5.40;99.90;;;;;;5048852;28;20056;-76
2021/12/20 16:00:34;;;;;;;27.43;19.53;;;5.30;99.90;;;;;;5049672;28;20139;-74
2021/12/20 16:03:03;;;;;;;34.57;16.10;;;5.20;99.90;;;;;;5049307;28;20052;-73
2021/12/20 16:05:29;;;;;;;27.93;18.57;;;5.20;99.90;;;;;;5048050;28;20056;-67
2021/12/20 16:07:55;;;;;;;22.07;13.83;;;5.10;99.90;;;;;;5047924;28;20037;-71
2021/12/20 16:10:21;;;;;;;26.33;12.77;;;5.10;99.90;;;;;;5049556;28;20740;-72
2021/12/20 16:12:50;;;;;;;18.40;11.43;;;5.10;99.90;;;;;;5049401;28;20041;-72
2021/12/20 16:15:21;;;;;;;23.83;11.17;;;5.10;99.90;;;;;;5048770;28;20037;-74
2021/12/20 16:17:51;;;;;;;;;;;5.00;99.90;;;;;;5048288;28;20098;-71
2021/12/20 16:20:19;;;;;;;31.97;15.70;;;5.00;99.90;;;;;;5049399;28;19927;-71
2021/12/20 16:22:45;;;;;;;26.93;10.67;;;5.00;99.90;;;;;;5048201;28;20412;-71
2021/12/20 16:25:14;;;;;;;20.27;11.27;;;5.00;99.90;;;;;;5047852;28;20051;-71
2021/12/20 16:27:44;;;;;;;21.17;11.83;;;5.00;99.90;;;;;;5049038;28;20037;-71
2021/12/20 16:30:14;;;;;;;26.20;16.00;;;5.00;99.90;;;;;;5048555;28;20103;-70
2021/12/20 16:32:40;;;;;;;23.33;17.23;;;4.90;99.90;;;;;;5048902;28;20047;-70
2021/12/20 16:35:09;;;;;;;31.10;22.80;;;4.90;99.90;;;;;;5042170;28;20141;-69
2021/12/20 16:37:35;;;;;;;30.30;17.80;;;5.00;99.90;;;;;;5028338;28;20049;-71
2021/12/20 16:40:02;;;;;;;20.57;14.07;;;5.00;99.90;;;;;;5029341;28;20428;-70
2021/12/20 16:42:28;;;;;;;18.77;13.43;;;5.00;99.90;;;;;;5028955;28;20048;-69
2021/12/20 16:44:55;;;;;;;28.30;18.23;;;4.90;99.90;;;;;;5028223;28;20057;-72
2021/12/20 16:47:24;;;;;;;29.20;19.17;;;4.80;99.90;;;;;;5029503;28;20049;-81
2021/12/20 16:49:53;;;;;;;28.43;17.87;;;4.80;99.90;;;;;;5049408;28;20041;-75
2021/12/20 16:52:20;;;;;;;32.17;19.00;;;4.70;99.90;;;;;;5047456;28;20048;-82
2021/12/20 16:54:46;;;;;;;43.13;31.40;;;4.70;99.90;;;;;;5047127;28;20393;-81
2021/12/20 16:57:13;;;;;;;32.17;24.13;;;4.70;99.90;;;;;;5048885;28;20052;-81
2021/12/20 16:59:39;;;;;;;26.37;19.07;;;4.60;99.90;;;;;;5047775;28;20041;-82
2021/12/20 17:02:06;;;;;;;34.90;23.80;;;4.50;99.90;;;;;;5048863;28;20509;-82
2021/12/20 17:07:00;;;;;;;30.87;19.23;;;4.30;99.90;;;;;;5048452;28;20063;-81
2021/12/20 17:09:28;;;;;;;30.10;17.90;;;4.30;99.90;;;;;;5047265;28;20053;-81
2021/12/20 17:11:54;;;;;;;26.87;17.47;;;4.20;99.90;;;;;;5048044;28;20048;-81
2021/12/20 17:14:20;;;;;;;24.37;14.73;;;4.00;99.90;;;;;;5049978;28;20117;-80
2021/12/20 17:16:47;;;;;;;24.30;16.23;;;3.70;99.90;;;;;;5051786;28;20051;-80
2021/12/20 17:19:13;;;;;;;28.27;19.33;;;3.60;99.90;;;;;;5049453;28;20041;-80
2021/12/20 17:21:39;;;;;;;30.37;20.80;;;3.50;99.90;;;;;;5047203;28;20051;-78
2021/12/20 17:24:06;;;;;;;22.53;16.50;;;3.40;99.90;;;;;;5048043;28;20307;-70
2021/12/20 17:26:35;;;;;;;25.63;16.87;;;3.30;99.90;;;;;;5047105;28;20294;-67
2021/12/20 17:29:00;;;;;;;26.03;15.93;;;3.20;99.90;;;;;;5047739;28;20291;-68
2021/12/20 17:31:26;;;;;;;19.63;13.50;;;3.20;99.90;;;;;;5047785;28;20341;-68
2021/12/20 17:33:52;;;;;;;25.50;13.90;;;3.20;99.90;;;;;;5044566;28;20037;-70
2021/12/20 17:36:18;;;;;;;14.60;11.17;;;3.20;99.90;;;;;;5039986;28;20045;-70
2021/12/20 17:38:44;;;;;;;20.13;11.60;;;3.20;99.90;;;;;;5038762;28;20076;-69
2021/12/20 17:41:09;;;;;;;18.30;9.00;;;3.30;99.90;;;;;;5045580;28;20068;-70
2021/12/20 17:43:35;;;;;;;17.10;8.60;;;3.30;99.90;;;;;;5036932;28;20733;-69
2021/12/20 17:46:01;;;;;;;18.03;9.60;;;3.30;99.90;;;;;;5026906;28;20100;-71
2021/12/20 17:48:27;;;;;;;14.73;9.30;;;3.20;99.90;;;;;;5027116;28;20046;-69
2021/12/20 17:50:53;;;;;;;14.60;9.33;;;3.10;99.90;;;;;;5045497;28;20136;-67
2021/12/20 17:53:19;;;;;;;11.77;8.40;;;3.10;99.90;;;;;;5046382;28;20524;-73
2021/12/20 17:55:45;;;;;;;12.73;7.70;;;3.10;99.90;;;;;;5047446;28;20041;-73
2021/12/20 17:58:11;;;;;;;12.63;7.50;;;3.10;99.90;;;;;;5047094;28;20041;-73
2021/12/20 18:00:37;;;;;;;12.73;6.93;;;3.00;99.90;;;;;;5047182;28;20365;-73
2021/12/20 18:03:03;;;;;;;16.10;6.77;;;3.00;99.90;;;;;;5046656;28;20299;-73
2021/12/20 18:05:31;;;;;;;10.83;6.07;;;3.00;99.90;;;;;;5046513;28;20045;-72
2021/12/20 18:07:57;;;;;;;16.80;7.20;;;3.00;99.90;;;;;;5047474;28;20067;-73
2021/12/20 18:10:23;;;;;;;11.37;6.60;;;3.00;99.90;;;;;;5048221;28;20656;-73
2021/12/20 18:12:49;;;;;;;11.80;6.40;;;3.00;99.90;;;;;;5047959;28;20045;-72
2021/12/20 18:15:17;;;;;;;13.17;7.70;;;2.90;99.90;;;;;;5047108;28;20057;-73
2021/12/20 18:17:44;;;;;;;17.40;8.00;;;2.80;99.90;;;;;;5047740;28;20484;-73
2021/12/20 18:20:14;;;;;;;23.83;11.33;;;2.80;99.90;;;;;;5046743;28;20291;-73
2021/12/20 19:10:41;;;;;;;29.87;13.37;;;2.70;99.90;;;;;;5083309;27;20470;-73
2021/12/20 19:13:07;;;;;;;27.53;14.70;;;2.70;99.90;;;;;;5086750;28;20771;-78
2021/12/20 19:15:35;;;;;;;27.63;16.70;;;2.60;99.90;;;;;;5086892;28;20385;-75
2021/12/20 19:18:04;;;;;;;26.27;18.90;;;2.70;99.90;;;;;;5086191;28;20036;-74
2021/12/20 19:20:31;;;;;;;29.57;17.03;;;2.60;99.90;;;;;;5086388;28;20293;-75
2021/12/20 19:22:57;;;;;;;33.20;19.13;;;2.60;99.90;;;;;;5069195;28;20774;-71
2021/12/20 19:25:28;;;;;;;37.90;26.30;;;2.60;99.90;;;;;;5086362;28;20297;-75
2021/12/20 19:27:55;;;;;;;32.65;20.67;;;2.70;99.90;;;;;;5086553;28;20052;-74
2021/12/20 19:30:21;;;;;;;24.10;16.07;;;2.70;99.90;;;;;;5086205;28;20044;-74
2021/12/20 19:32:47;;;;;;;22.97;16.07;;;2.70;99.90;;;;;;5067216;28;20290;-73
2021/12/20 19:35:13;;;;;;;21.73;13.23;;;2.70;99.90;;;;;;5086570;28;20396;-77
2021/12/20 19:37:39;;;;;;;25.50;15.80;;;2.80;99.90;;;;;;5068259;28;20047;-76
2021/12/20 19:40:05;;;;;;;26.37;15.43;;;2.80;99.90;;;;;;5085891;28;20132;-75
2021/12/20 19:42:35;;;;;;;21.83;12.60;;;2.90;99.90;;;;;;5068235;28;20048;-77
2021/12/20 19:45:03;;;;;;;23.90;12.50;;;3.00;99.90;;;;;;5067747;28;20336;-78
2021/12/20 19:47:28;;;;;;;20.87;12.70;;;3.00;99.90;;;;;;5067359;28;20365;-76
2021/12/20 19:49:54;;;;;;;18.10;13.07;;;3.00;99.90;;;;;;5067884;28;20893;-78
2021/12/20 19:52:19;;;;;;;26.93;15.13;;;3.00;99.90;;;;;;5068375;28;20550;-76
2021/12/20 19:54:47;;;;;;;27.67;17.67;;;3.10;99.90;;;;;;5067124;28;20056;-77
2021/12/20 19:57:13;;;;;;;25.13;17.00;;;3.10;99.90;;;;;;5086028;28;20052;-75
2021/12/20 19:59:39;;;;;;;27.70;16.60;;;3.10;99.90;;;;;;5085845;28;20287;-77
2021/12/20 20:02:05;;;;;;;27.33;18.47;;;3.10;99.90;;;;;;5068064;28;20758;-77
2021/12/20 20:04:34;;;;;;;25.97;16.03;;;3.10;99.90;;;;;;5086128;28;20291;-76
2021/12/20 20:07:03;;;;;;;22.03;13.27;;;3.10;99.90;;;;;;5086200;28;20427;-77
2021/12/20 20:09:35;;;;;;;24.07;13.17;;;3.10;99.90;;;;;;5085212;28;20345;-74
2021/12/20 20:12:06;;;;;;;14.00;9.90;;;3.10;99.90;;;;;;5067710;28;20282;-75
2021/12/20 20:14:32;;;;;;;15.63;10.13;;;3.00;99.90;;;;;;5084638;28;20286;-77
2021/12/20 20:16:58;;;;;;;18.13;9.00;;;3.00;99.90;;;;;;5068004;28;20297;-76
2021/12/20 20:19:25;;;;;;;22.03;12.30;;;3.00;99.90;;;;;;5085360;28;20287;-76
2021/12/20 20:21:52;;;;;;;21.57;11.80;;;2.90;99.90;;;;;;5053559;28;20044;-75
2021/12/20 20:24:18;;;;;;;23.30;13.57;;;2.90;99.90;;;;;;5072038;28;20360;-77
2021/12/20 20:26:44;;;;;;;21.90;14.57;;;2.80;99.90;;;;;;5053730;28;20817;-76
2021/12/20 20:29:14;;;;;;;28.43;15.73;;;2.80;99.90;;;;;;5071334;28;20045;-75
2021/12/20 20:31:40;;;;;;;21.97;14.77;;;2.70;99.90;;;;;;5071566;28;20089;-74
2021/12/20 20:34:07;;;;;;;22.23;14.73;;;2.70;99.90;;;;;;5071609;28;20290;-74
2021/12/20 20:36:35;;;;;;;24.53;13.30;;;2.70;99.90;;;;;;5053118;28;20298;-76
2021/12/20 20:39:06;;;;;;;21.77;14.13;;;2.70;99.90;;;;;;5072014;28;20286;-77
